Bridget Mcallister — WDG8300 — position and weather

sailwx.info

Track history (hours):
 
Tides and Currents Weather Stations Pressure Air Temp Water Temp Dewpoint Dewpoint Depression Visibility Wind Speed Wind Dir Waves Ship Positions

Bridget Mcallister

Owner: McAllister Towing & Transportation Co. Inc., Staten Island, NY. More information available from US FCC via Universal Licensing System and Coast Guard Vessel Documentation Center.

Last reported at 2018-Jun-25 00:00 UTC. Time now 2018-Jun-25 00:23 UTC.
Position N 39°16' W 076°35'.

Length 23 m; draft 4.6 m.

Type: Tug. MMSI: 367576060.

Date/timePositionNaut miles runAvg speedWind from/ knotsBaromVisibWave heightAir tempDewpointWater temp
2018-Jun-25 00:00N 39°16' W 076°35'0 0.0
2018-Jun-24 23:30N 39°16' W 076°35'0 0.0
2018-Jun-24 23:00N 39°16' W 076°35'0 0.0
2018-Jun-24 22:30N 39°16' W 076°35'0 0.0
2018-Jun-24 22:00N 39°16' W 076°35'0 0.0
2018-Jun-24 21:30N 39°16' W 076°35'0 0.0
2018-Jun-24 21:00N 39°16' W 076°35'0 0.0
2018-Jun-24 20:30N 39°16' W 076°35'0 0.0
2018-Jun-24 20:00N 39°16' W 076°35'0 0.0
2018-Jun-24 19:30N 39°16' W 076°35'1 2.8
2018-Jun-24 19:00N 39°15' W 076°34'1 2.0
2018-Jun-24 18:30N 39°15' W 076°32'1 1.1
2018-Jun-24 18:00N 39°14' W 076°32'3 5.4
2018-Jun-24 17:30N 39°16' W 076°35'0 0.6
2018-Jun-24 17:00N 39°16' W 076°35'0 0.0
2018-Jun-24 16:30N 39°16' W 076°35'0 0.0
2018-Jun-24 16:00N 39°16' W 076°35'0 0.0
2018-Jun-24 15:30N 39°16' W 076°35'3 5.9
2018-Jun-24 15:00N 39°13' W 076°34'1 1.7
2018-Jun-24 14:30N 39°13' W 076°35'2 3.9
2018-Jun-24 14:00N 39°14' W 076°33'2 4.9
2018-Jun-24 13:30N 39°16' W 076°35'0 0.0
2018-Jun-24 13:00N 39°16' W 076°35'0 0.0
2018-Jun-24 12:30N 39°16' W 076°35'0 0.0
2018-Jun-24 12:00N 39°16' W 076°35'0 0.0
2018-Jun-24 11:30N 39°16' W 076°35'0 0.0
2018-Jun-24 11:00N 39°16' W 076°35'0 0.0
2018-Jun-24 10:30N 39°16' W 076°35'0 0.0
2018-Jun-24 10:00N 39°16' W 076°35'0 0.0
2018-Jun-24 09:30N 39°16' W 076°35'0 0.0
2018-Jun-24 09:00N 39°16' W 076°35'0 0.0
2018-Jun-24 08:30N 39°16' W 076°35'0 0.0
2018-Jun-24 08:00N 39°16' W 076°35'0 0.0
2018-Jun-24 07:30N 39°16' W 076°35'0 0.0
2018-Jun-24 07:00N 39°16' W 076°35'0 0.0
2018-Jun-24 06:30N 39°16' W 076°35'0 0.0
2018-Jun-24 06:00N 39°16' W 076°35'0 0.0
2018-Jun-24 05:30N 39°16' W 076°35'0 0.0
2018-Jun-24 05:00N 39°16' W 076°35'0 0.0
2018-Jun-24 04:30N 39°16' W 076°35'0 0.0
2018-Jun-24 04:00N 39°16' W 076°35'0 0.0
2018-Jun-24 03:30N 39°16' W 076°35'0 0.0
2018-Jun-24 03:00N 39°16' W 076°35'0 0.0
2018-Jun-24 02:30N 39°16' W 076°35'0 0.0
2018-Jun-24 02:00N 39°16' W 076°35'0 0.0
2018-Jun-24 01:30N 39°16' W 076°35'0 0.0
2018-Jun-24 01:00N 39°16' W 076°35'0 0.0
2018-Jun-24 00:30N 39°16' W 076°35'0 0.0
2018-Jun-24 00:00N 39°16' W 076°35'0 0.0
2018-Jun-23 23:30N 39°16' W 076°35'1 1.5
2018-Jun-23 23:00N 39°16' W 076°34'1 2.4
2018-Jun-23 22:30N 39°15' W 076°33'2 3.8
2018-Jun-23 22:00N 39°13' W 076°32'0 0.5
2018-Jun-23 21:30N 39°13' W 076°32'4 7.7
2018-Jun-23 21:00N 39°16' W 076°35'0 0.0
2018-Jun-23 20:30N 39°16' W 076°35'0 0.3
2018-Jun-23 20:00N 39°16' W 076°35'1 2.8
2018-Jun-23 19:30N 39°15' W 076°33'2 3.1
2018-Jun-23 19:00N 39°16' W 076°35'0 0.0
2018-Jun-23 18:30N 39°16' W 076°35'0 0.0
2018-Jun-23 18:00N 39°16' W 076°35'0 0.0
2018-Jun-23 17:30N 39°16' W 076°35'0 0.0
2018-Jun-23 17:00N 39°16' W 076°35'0 0.0
2018-Jun-23 16:30N 39°16' W 076°35'0 0.0
2018-Jun-23 16:00N 39°16' W 076°35'0 0.0
2018-Jun-23 15:30N 39°16' W 076°35'0 0.0
2018-Jun-23 15:00N 39°16' W 076°35'0 0.0
2018-Jun-23 14:30N 39°16' W 076°35'0 0.0
2018-Jun-23 14:00N 39°16' W 076°35'0 0.0
2018-Jun-23 13:30N 39°16' W 076°35'0 0.0
2018-Jun-23 13:00N 39°16' W 076°35'0 0.0
2018-Jun-23 12:29N 39°16' W 076°35'0 0.0
2018-Jun-23 12:00N 39°16' W 076°35'0 0.0
2018-Jun-23 11:30N 39°16' W 076°35'0 0.0
2018-Jun-23 11:00N 39°16' W 076°35'0 0.0
2018-Jun-23 10:30N 39°16' W 076°35'0 0.0
2018-Jun-23 10:00N 39°16' W 076°35'0 0.0
2018-Jun-23 09:30N 39°16' W 076°35'0 0.0
2018-Jun-23 09:00N 39°16' W 076°35'0 0.0
2018-Jun-23 08:30N 39°16' W 076°35'0 0.0
2018-Jun-23 08:00N 39°16' W 076°35'3 5.9
2018-Jun-23 07:29N 39°14' W 076°33'1 1.8
2018-Jun-23 06:58N 39°13' W 076°32'1 1.2
2018-Jun-23 06:30N 39°13' W 076°32'3 5.3
2018-Jun-23 06:00N 39°15' W 076°34'1 2.5
2018-Jun-23 05:30N 39°16' W 076°35'0 0.0
2018-Jun-23 05:00N 39°16' W 076°35'0 0.0
2018-Jun-23 04:30N 39°16' W 076°35'0 0.0
2018-Jun-23 04:00N 39°16' W 076°35'0 0.0
2018-Jun-23 03:30N 39°16' W 076°35'0 0.0
2018-Jun-23 03:00N 39°16' W 076°35'0 0.0
2018-Jun-23 02:30N 39°16' W 076°35'0 0.0
2018-Jun-23 02:00N 39°16' W 076°35'0 0.0
2018-Jun-23 01:30N 39°16' W 076°35'0 0.0
2018-Jun-23 01:00N 39°16' W 076°35'0 0.0
2018-Jun-23 00:30N 39°16' W 076°35'3 5.7
2018-Jun-23 00:00N 39°14' W 076°33'1 1.2
2018-Jun-22 23:30N 39°13' W 076°33'1 1.3
2018-Jun-22 22:24N 39°13' W 076°35'0 0.0
2018-Jun-22 22:00N 39°13' W 076°35'1 1.8
2018-Jun-22 21:22N 39°13' W 076°33'2 5.1
2018-Jun-22 21:00N 39°15' W 076°33'0 0.5
2018-Jun-22 20:30N 39°15' W 076°33'2 3.3
2018-Jun-22 20:00N 39°13' W 076°32'4 7.2
2018-Jun-22 19:30N 39°16' W 076°35'0 0.0
2018-Jun-22 19:00N 39°16' W 076°35'0 0.0
2018-Jun-22 18:30N 39°16' W 076°35'0 0.0
2018-Jun-22 18:00N 39°16' W 076°35'0 0.0
2018-Jun-22 17:30N 39°16' W 076°35'0 0.0
2018-Jun-22 17:00N 39°16' W 076°35'0 0.0
2018-Jun-22 16:30N 39°16' W 076°35'0 0.0
2018-Jun-22 16:00N 39°16' W 076°35'0 0.0
2018-Jun-22 15:30N 39°16' W 076°35'0 0.0
2018-Jun-22 15:00N 39°16' W 076°35'0 0.0
2018-Jun-22 14:30N 39°16' W 076°35'0 0.0
2018-Jun-22 14:00N 39°16' W 076°35'0 0.0
2018-Jun-22 13:30N 39°16' W 076°35'0 0.0
2018-Jun-22 13:00N 39°16' W 076°35'0 0.0
2018-Jun-22 12:30N 39°16' W 076°35'0 0.0
2018-Jun-22 12:00N 39°16' W 076°35'0 0.0
2018-Jun-22 11:30N 39°16' W 076°35'0 0.0
2018-Jun-22 11:00N 39°16' W 076°35'0 0.0
2018-Jun-22 10:30N 39°16' W 076°35'0 0.0
2018-Jun-22 10:00N 39°16' W 076°35'0 0.0
2018-Jun-22 09:30N 39°16' W 076°35'0 0.0
2018-Jun-22 09:00N 39°16' W 076°35'0 0.0
2018-Jun-22 08:30N 39°16' W 076°35'0 0.0
2018-Jun-22 08:00N 39°16' W 076°35'0 0.0
2018-Jun-22 07:30N 39°16' W 076°35'0 0.0
2018-Jun-22 07:00N 39°16' W 076°35'0 0.0
2018-Jun-22 06:30N 39°16' W 076°35'0 0.0
2018-Jun-22 06:00N 39°16' W 076°35'0 0.0
2018-Jun-22 05:30N 39°16' W 076°35'0 0.0
2018-Jun-22 05:00N 39°16' W 076°35'0 0.0
2018-Jun-22 04:30N 39°16' W 076°35'0 0.0
2018-Jun-22 04:00N 39°16' W 076°35'0 0.0
2018-Jun-22 03:30N 39°16' W 076°35'0 0.0
2018-Jun-22 03:00N 39°16' W 076°35'0 0.0
2018-Jun-22 02:30N 39°16' W 076°35'0 0.0
2018-Jun-22 02:00N 39°16' W 076°35'0 0.0
2018-Jun-22 01:30N 39°16' W 076°35'0 0.0
2018-Jun-22 01:00N 39°16' W 076°35'0 0.0
2018-Jun-22 00:30N 39°16' W 076°35'0 0.0
2018-Jun-22 00:00N 39°16' W 076°35'0 0.0
2018-Jun-21 23:30N 39°16' W 076°35'1 2.3
2018-Jun-21 23:00N 39°15' W 076°35'1 2.3
2018-Jun-21 22:30N 39°16' W 076°35'0 0.0
2018-Jun-21 22:00N 39°16' W 076°35'0 0.0
2018-Jun-21 21:30N 39°16' W 076°35'0 0.0
2018-Jun-21 21:00N 39°16' W 076°35'0 0.0
2018-Jun-21 20:30N 39°16' W 076°35'0 0.0
2018-Jun-21 20:00N 39°16' W 076°35'0 0.0
2018-Jun-21 19:30N 39°16' W 076°35'0 0.0
2018-Jun-21 19:00N 39°16' W 076°35'0 0.0
2018-Jun-21 18:30N 39°16' W 076°35'0 0.0
2018-Jun-21 18:00N 39°16' W 076°35'0 0.0
2018-Jun-21 17:30N 39°16' W 076°35'0 0.0
2018-Jun-21 17:00N 39°16' W 076°35'0 0.0
2018-Jun-21 16:30N 39°16' W 076°35'0 0.0
2018-Jun-21 16:00N 39°16' W 076°35'0 0.0
2018-Jun-21 15:30N 39°16' W 076°35'0 0.0
2018-Jun-21 15:00N 39°16' W 076°35'0 0.0
2018-Jun-21 14:30N 39°16' W 076°35'0 0.0
2018-Jun-21 14:00N 39°16' W 076°35'0 0.0
2018-Jun-21 13:30N 39°16' W 076°35'0 0.0
2018-Jun-21 13:00N 39°16' W 076°35'0 0.0
2018-Jun-21 12:30N 39°16' W 076°35'0 0.0
2018-Jun-21 12:00N 39°16' W 076°35'0 0.0
2018-Jun-21 11:30N 39°16' W 076°35'0 0.0
2018-Jun-21 11:00N 39°16' W 076°35'0 0.0
2018-Jun-21 10:30N 39°16' W 076°35'0 0.0
2018-Jun-21 10:00N 39°16' W 076°35'0 0.0
2018-Jun-21 09:30N 39°16' W 076°35'0 0.0
2018-Jun-21 09:00N 39°16' W 076°35'0 0.0
2018-Jun-21 08:30N 39°16' W 076°35'0 0.0
2018-Jun-21 08:00N 39°16' W 076°35'0 0.0
2018-Jun-21 07:30N 39°16' W 076°35'0 0.0
2018-Jun-21 07:00N 39°16' W 076°35'0 0.0
2018-Jun-21 06:30N 39°16' W 076°35'0 0.0
2018-Jun-21 06:00N 39°16' W 076°35'0 0.0
2018-Jun-21 05:30N 39°16' W 076°35'0 0.0
2018-Jun-21 05:00N 39°16' W 076°35'0 0.0
2018-Jun-21 04:30N 39°16' W 076°35'1 2.5
2018-Jun-21 04:00N 39°15' W 076°35'0 0.8
2018-Jun-21 03:30N 39°15' W 076°34'0 0.8
2018-Jun-21 03:00N 39°15' W 076°35'1 2.3
2018-Jun-21 02:30N 39°16' W 076°35'0 0.0
2018-Jun-21 02:00N 39°16' W 076°35'0 0.0
2018-Jun-21 01:30N 39°16' W 076°35'0 0.0
2018-Jun-21 01:00N 39°16' W 076°35'1 1.5
2018-Jun-21 00:30N 39°15' W 076°35'0 0.8
2018-Jun-21 00:00N 39°15' W 076°35'2 3.1
2018-Jun-20 23:30N 39°14' W 076°33'1 2.4
2018-Jun-20 23:00N 39°15' W 076°31'0 0.3
2018-Jun-20 22:27N 39°14' W 076°32'0 0.0
2018-Jun-20 22:00N 39°14' W 076°32'0 0.7
2018-Jun-20 21:30N 39°14' W 076°32'2 4.2
2018-Jun-20 21:00N 39°15' W 076°35'1 1.0
2018-Jun-20 20:30N 39°15' W 076°34'1 2.9
2018-Jun-20 20:00N 39°14' W 076°33'1 1.7
2018-Jun-20 19:30N 39°15' W 076°32'0 0.1
2018-Jun-20 19:00N 39°15' W 076°32'2 4.6
2018-Jun-20 18:30N 39°16' W 076°35'0 0.0
2018-Jun-20 18:00N 39°16' W 076°35'0 0.0
2018-Jun-20 17:30N 39°16' W 076°35'0 0.0
2018-Jun-20 17:00N 39°16' W 076°35'0 0.0
2018-Jun-20 16:30N 39°16' W 076°35'0 0.0
2018-Jun-20 16:00N 39°16' W 076°35'0 0.0
2018-Jun-20 15:30N 39°16' W 076°35'0 0.0
2018-Jun-20 15:00N 39°16' W 076°35'0 0.0
2018-Jun-20 14:30N 39°16' W 076°35'0 0.0
2018-Jun-20 14:00N 39°16' W 076°35'0 0.0
2018-Jun-20 13:30N 39°16' W 076°35'0 0.1
2018-Jun-20 13:00N 39°16' W 076°35'3 5.7
2018-Jun-20 12:30N 39°13' W 076°34'0 0.4
2018-Jun-20 11:57N 39°13' W 076°35'1 1.3
2018-Jun-20 11:29N 39°13' W 076°34'2 3.7
2018-Jun-20 11:00N 39°13' W 076°32'0 0.0
2018-Jun-20 10:30N 39°13' W 076°32'1 2.7
2018-Jun-20 10:00N 39°15' W 076°31'1 2.1
2018-Jun-20 09:30N 39°14' W 076°33'0 0.4
2018-Jun-20 09:00N 39°14' W 076°33'2 4.5
2018-Jun-20 08:31N 39°16' W 076°35'0 0.3
2018-Jun-20 08:00N 39°16' W 076°35'0 0.0
2018-Jun-20 07:30N 39°16' W 076°35'0 0.0
2018-Jun-20 07:00N 39°16' W 076°35'0 0.0
2018-Jun-20 06:30N 39°16' W 076°35'0 0.0
2018-Jun-20 06:00N 39°16' W 076°35'0 0.0
2018-Jun-20 05:30N 39°16' W 076°35'0 0.0
2018-Jun-20 05:00N 39°16' W 076°35'0 0.0
2018-Jun-20 04:30N 39°16' W 076°35'0 0.0
2018-Jun-20 04:00N 39°16' W 076°35'0 0.0
2018-Jun-20 03:30N 39°16' W 076°35'0 0.0
2018-Jun-20 03:00N 39°16' W 076°35'0 0.0
2018-Jun-20 02:30N 39°16' W 076°35'0 0.0
2018-Jun-20 02:00N 39°16' W 076°35'0 0.0
2018-Jun-20 01:30N 39°16' W 076°35'0 0.0
2018-Jun-20 01:00N 39°16' W 076°35'0 0.0
2018-Jun-20 00:30N 39°16' W 076°35'0 0.0
2018-Jun-20 00:00N 39°16' W 076°35'0 0.0
2018-Jun-19 23:30N 39°16' W 076°35'0 0.0
2018-Jun-19 23:00N 39°16' W 076°35'0 0.0
2018-Jun-19 22:30N 39°16' W 076°35'0 0.0
2018-Jun-19 22:00N 39°16' W 076°35'0 0.0
2018-Jun-19 21:30N 39°16' W 076°35'0 0.0
2018-Jun-19 21:00N 39°16' W 076°35'0 0.0
2018-Jun-19 20:30N 39°16' W 076°35'0 0.0
2018-Jun-19 20:00N 39°16' W 076°35'0 0.0
2018-Jun-19 19:30N 39°16' W 076°35'3 5.6
2018-Jun-19 19:00N 39°14' W 076°32'1 1.8
2018-Jun-19 18:30N 39°14' W 076°32'2 4.6
2018-Jun-19 18:00N 39°15' W 076°34'1 2.2
2018-Jun-19 17:30N 39°16' W 076°35'0 0.0
2018-Jun-19 17:00N 39°16' W 076°35'0 0.0
2018-Jun-19 16:30N 39°16' W 076°35'0 0.0
2018-Jun-19 16:00N 39°16' W 076°35'0 0.0
2018-Jun-19 15:30N 39°16' W 076°35'0 0.0
2018-Jun-19 15:00N 39°16' W 076°35'0 0.0
2018-Jun-19 14:30N 39°16' W 076°35'0 0.0
2018-Jun-19 14:00N 39°16' W 076°35'1 1.4
2018-Jun-19 13:30N 39°16' W 076°34'1 1.9
2018-Jun-19 13:00N 39°15' W 076°34'2 4.4
2018-Jun-19 12:30N 39°13' W 076°32'0 0.3
2018-Jun-19 12:00N 39°13' W 076°32'0 0.0
2018-Jun-19 11:30N 39°13' W 076°32'0 0.0
2018-Jun-19 11:00N 39°13' W 076°32'0 0.0
2018-Jun-19 10:30N 39°13' W 076°32'0 0.0
2018-Jun-19 10:00N 39°13' W 076°32'0 0.0
2018-Jun-19 09:26N 39°13' W 076°32'0 0.0
2018-Jun-19 09:00N 39°13' W 076°32'0 0.0
2018-Jun-19 08:30N 39°13' W 076°32'0 0.0
2018-Jun-19 08:00N 39°13' W 076°32'0 0.0
2018-Jun-19 07:30N 39°13' W 076°32'2 3.7
2018-Jun-19 07:00N 39°15' W 076°31'0 0.7
2018-Jun-19 06:30N 39°14' W 076°32'1 2.7
2018-Jun-19 06:00N 39°15' W 076°33'2 4.0
2018-Jun-19 05:30N 39°16' W 076°36'0 0.6
2018-Jun-19 05:00N 39°16' W 076°35'1 1.4
2018-Jun-19 04:30N 39°16' W 076°35'0 0.0
2018-Jun-19 04:00N 39°16' W 076°35'0 0.0
2018-Jun-19 03:30N 39°16' W 076°35'0 0.0
2018-Jun-19 03:00N 39°16' W 076°35'0 0.0
2018-Jun-19 02:30N 39°16' W 076°35'0 0.0
2018-Jun-19 02:00N 39°16' W 076°35'0 0.0
2018-Jun-19 01:30N 39°16' W 076°35'0 0.0
2018-Jun-19 01:00N 39°16' W 076°35'0 0.0
2018-Jun-19 00:30N 39°16' W 076°35'0 0.0
2018-Jun-19 00:00N 39°16' W 076°35'0 0.0
2018-Jun-18 23:30N 39°16' W 076°35'0 0.0
2018-Jun-18 23:00N 39°16' W 076°35'0 0.0
2018-Jun-18 22:30N 39°16' W 076°35'0 0.0
2018-Jun-18 22:00N 39°16' W 076°35'0 0.0
2018-Jun-18 21:30N 39°16' W 076°35'0 0.0
2018-Jun-18 21:00N 39°16' W 076°35'0 0.0
2018-Jun-18 20:30N 39°16' W 076°35'0 0.0
2018-Jun-18 20:00N 39°16' W 076°35'0 0.0
2018-Jun-18 19:30N 39°16' W 076°35'0 0.0
2018-Jun-18 19:00N 39°16' W 076°35'0 0.0
2018-Jun-18 18:30N 39°16' W 076°35'0 0.0
2018-Jun-18 18:00N 39°16' W 076°35'0 0.0
2018-Jun-18 17:30N 39°16' W 076°35'0 0.0
2018-Jun-18 17:00N 39°16' W 076°35'0 0.0
2018-Jun-18 15:26N 39°16' W 076°35'0 0.0
2018-Jun-18 15:00N 39°16' W 076°35'0 0.0
2018-Jun-18 14:30N 39°16' W 076°35'0 0.0
2018-Jun-18 14:00N 39°16' W 076°35'0 0.0
2018-Jun-18 13:30N 39°16' W 076°35'0 0.0
2018-Jun-18 13:00N 39°16' W 076°35'0 0.0
2018-Jun-18 12:30N 39°16' W 076°35'0 0.0
2018-Jun-18 12:00N 39°16' W 076°35'0 0.0
2018-Jun-18 11:30N 39°16' W 076°35'0 0.0
2018-Jun-18 11:00N 39°16' W 076°35'0 0.0
2018-Jun-18 10:30N 39°16' W 076°35'0 0.0
2018-Jun-18 10:00N 39°16' W 076°35'0 0.0
2018-Jun-18 09:30N 39°16' W 076°35'0 0.0
2018-Jun-18 09:00N 39°16' W 076°35'0 0.0
2018-Jun-18 08:30N 39°16' W 076°35'0 0.0
2018-Jun-18 08:00N 39°16' W 076°35'0 0.0
2018-Jun-18 07:30N 39°16' W 076°35'0 0.0
2018-Jun-18 07:00N 39°16' W 076°35'0 0.0
2018-Jun-18 06:30N 39°16' W 076°35'0 0.0
2018-Jun-18 06:00N 39°16' W 076°35'0 0.0
2018-Jun-18 05:30N 39°16' W 076°35'0 0.0
2018-Jun-18 05:00N 39°16' W 076°35'1 1.4
2018-Jun-18 04:30N 39°16' W 076°35'0 0.8
2018-Jun-18 04:01N 39°15' W 076°35'3 5.7
2018-Jun-18 03:30N 39°14' W 076°32'2 4.3
2018-Jun-18 03:00N 39°15' W 076°34'1 2.2
2018-Jun-18 02:30N 39°16' W 076°35'0 0.0
2018-Jun-18 02:00N 39°16' W 076°35'0 0.0
2018-Jun-18 01:30N 39°16' W 076°35'0 0.0
2018-Jun-18 01:00N 39°16' W 076°35'0 0.0
2018-Jun-18 00:30N 39°16' W 076°35'0 0.0
2018-Jun-18 00:00N 39°16' W 076°35'0 0.0
2018-Jun-17 23:30N 39°16' W 076°35'0 0.0
2018-Jun-17 23:00N 39°16' W 076°35'0 0.0
2018-Jun-17 22:30N 39°16' W 076°35'0 0.0
2018-Jun-17 22:00N 39°16' W 076°35'0 0.0
2018-Jun-17 21:30N 39°16' W 076°35'0 0.0
2018-Jun-17 21:00N 39°16' W 076°35'0 0.0
2018-Jun-17 20:30N 39°16' W 076°35'0 0.0
2018-Jun-17 20:00N 39°16' W 076°35'0 0.6
2018-Jun-17 19:30N 39°16' W 076°35'1 2.1
2018-Jun-17 19:00N 39°15' W 076°35'1 2.4
2018-Jun-17 18:30N 39°16' W 076°35'0 0.0
2018-Jun-17 18:00N 39°16' W 076°35'0 0.0
2018-Jun-17 17:30N 39°16' W 076°35'0 0.0
2018-Jun-17 17:00N 39°16' W 076°35'0 0.0
2018-Jun-17 16:30N 39°16' W 076°35'0 0.0
2018-Jun-17 16:00N 39°16' W 076°35'0 0.0
2018-Jun-17 15:30N 39°16' W 076°35'0 0.0
2018-Jun-17 15:00N 39°16' W 076°35'0 0.0
2018-Jun-17 14:30N 39°16' W 076°35'0 0.0
2018-Jun-17 14:00N 39°16' W 076°35'0 0.0
2018-Jun-17 13:30N 39°16' W 076°35'0 0.0
2018-Jun-17 13:00N 39°16' W 076°35'0 0.0
2018-Jun-17 12:30N 39°16' W 076°35'0 0.0
2018-Jun-17 12:00N 39°16' W 076°35'0 0.0
2018-Jun-17 11:30N 39°16' W 076°35'0 0.0
2018-Jun-17 11:00N 39°16' W 076°35'0 0.0
2018-Jun-17 10:30N 39°16' W 076°35'0 0.0
2018-Jun-17 10:00N 39°16' W 076°35'0 0.0
2018-Jun-17 09:30N 39°16' W 076°35'0 0.0
2018-Jun-17 09:00N 39°16' W 076°35'0 0.0
2018-Jun-17 08:30N 39°16' W 076°35'0 0.0
2018-Jun-17 08:00N 39°16' W 076°35'0 0.0
2018-Jun-17 07:30N 39°16' W 076°35'0 0.0
2018-Jun-17 07:00N 39°16' W 076°35'0 0.0
2018-Jun-17 06:30N 39°16' W 076°35'0 0.0
2018-Jun-17 06:00N 39°16' W 076°35'0 0.0
2018-Jun-17 05:30N 39°16' W 076°35'0 0.0
2018-Jun-17 05:00N 39°16' W 076°35'0 0.0
2018-Jun-17 04:30N 39°16' W 076°35'0 0.0
2018-Jun-17 04:00N 39°16' W 076°35'0 0.0
2018-Jun-17 03:30N 39°16' W 076°35'0 0.0
2018-Jun-17 03:00N 39°16' W 076°35'0 0.0
2018-Jun-17 02:30N 39°16' W 076°35'0 0.0
2018-Jun-17 02:00N 39°16' W 076°35'0 0.0
2018-Jun-17 01:30N 39°16' W 076°35'0 0.0
2018-Jun-17 01:00N 39°16' W 076°35'0 0.0
2018-Jun-17 00:30N 39°16' W 076°35'0 0.8
2018-Jun-17 00:00N 39°16' W 076°34'2 4.0
2018-Jun-16 23:31N 39°15' W 076°32'1 1.2
2018-Jun-16 23:00N 39°14' W 076°32'2 4.7
2018-Jun-16 22:31N 39°16' W 076°34'1 1.3
2018-Jun-16 22:00N 39°16' W 076°35'0 0.0
2018-Jun-16 21:30N 39°16' W 076°35'0 0.0
2018-Jun-16 21:00N 39°16' W 076°35'0 0.0
2018-Jun-16 20:30N 39°16' W 076°35'0 0.0
2018-Jun-16 20:00N 39°16' W 076°35'0 0.0
2018-Jun-16 19:30N 39°16' W 076°35'2 3.8
2018-Jun-16 19:00N 39°15' W 076°33'1 2.4
2018-Jun-16 18:30N 39°14' W 076°34'2 3.4
2018-Jun-16 18:00N 39°15' W 076°34'1 2.3
2018-Jun-16 17:30N 39°16' W 076°35'0 0.0
2018-Jun-16 17:00N 39°16' W 076°35'0 0.0
2018-Jun-16 16:30N 39°16' W 076°35'0 0.0
2018-Jun-16 16:00N 39°16' W 076°35'0 0.0
2018-Jun-16 15:30N 39°16' W 076°35'0 0.0
2018-Jun-16 15:00N 39°16' W 076°35'0 0.0
2018-Jun-16 14:30N 39°16' W 076°35'0 0.0
2018-Jun-16 14:00N 39°16' W 076°35'0 0.0
2018-Jun-16 13:30N 39°16' W 076°35'0 0.0
2018-Jun-16 13:00N 39°16' W 076°35'0 0.0
2018-Jun-16 12:30N 39°16' W 076°35'0 0.0
2018-Jun-16 12:00N 39°16' W 076°35'0 0.0
2018-Jun-16 11:30N 39°16' W 076°35'0 0.0
2018-Jun-16 11:00N 39°16' W 076°35'0 0.0
2018-Jun-16 10:30N 39°16' W 076°35'0 0.0
2018-Jun-16 10:01N 39°16' W 076°35'2 3.1
2018-Jun-16 09:30N 39°15' W 076°33'0 0.7
2018-Jun-16 09:00N 39°15' W 076°33'0 0.1
2018-Jun-16 08:30N 39°15' W 076°33'2 4.8
2018-Jun-16 08:00N 39°13' W 076°32'0 0.0
2018-Jun-16 07:30N 39°13' W 076°32'0 0.0
2018-Jun-16 07:00N 39°13' W 076°32'0 0.0
2018-Jun-16 06:30N 39°13' W 076°32'0 0.0
2018-Jun-16 06:00N 39°13' W 076°32'0 0.0
2018-Jun-16 05:30N 39°13' W 076°32'0 0.0
2018-Jun-16 05:00N 39°13' W 076°32'2 3.3
2018-Jun-16 04:30N 39°13' W 076°35'0 0.8
2018-Jun-16 04:00N 39°13' W 076°35'2 4.7
2018-Jun-16 03:30N 39°15' W 076°34'1 2.9
2018-Jun-16 03:00N 39°16' W 076°35'0 0.0
2018-Jun-16 02:30N 39°16' W 076°35'0 0.0
2018-Jun-16 02:00N 39°16' W 076°35'0 0.0
2018-Jun-16 01:30N 39°16' W 076°35'0 0.0
2018-Jun-16 01:00N 39°16' W 076°35'0 0.0
2018-Jun-16 00:30N 39°16' W 076°35'0 0.0
2018-Jun-16 00:00N 39°16' W 076°35'0 0.0
2018-Jun-15 23:30N 39°16' W 076°35'0 0.0
2018-Jun-15 23:00N 39°16' W 076°35'0 0.0
2018-Jun-15 22:30N 39°16' W 076°35'0 0.0
2018-Jun-15 22:00N 39°16' W 076°35'0 0.0
2018-Jun-15 21:30N 39°16' W 076°35'0 0.0
2018-Jun-15 21:00N 39°16' W 076°35'0 0.0
2018-Jun-15 20:30N 39°16' W 076°35'0 0.0
2018-Jun-15 20:00N 39°16' W 076°35'0 0.0
2018-Jun-15 19:30N 39°16' W 076°35'0 0.0
2018-Jun-15 19:00N 39°16' W 076°35'0 0.0
2018-Jun-15 18:30N 39°16' W 076°35'0 0.0
2018-Jun-15 18:00N 39°16' W 076°35'0 0.0
2018-Jun-15 17:30N 39°16' W 076°35'1 2.3
2018-Jun-15 17:00N 39°15' W 076°35'0 0.6
2018-Jun-15 16:29N 39°15' W 076°35'2 3.7
2018-Jun-15 16:00N 39°15' W 076°33'1 1.3
2018-Jun-15 15:30N 39°15' W 076°32'0 0.2
2018-Jun-15 15:00N 39°15' W 076°32'0 0.0
2018-Jun-15 14:30N 39°15' W 076°32'0 0.0
2018-Jun-15 14:00N 39°15' W 076°32'0 0.0
2018-Jun-15 13:30N 39°15' W 076°32'0 0.0
2018-Jun-15 13:00N 39°15' W 076°32'0 0.0
2018-Jun-15 12:30N 39°15' W 076°32'0 0.0
2018-Jun-15 12:00N 39°15' W 076°32'0 0.7
2018-Jun-15 11:30N 39°15' W 076°33'0 1.0
2018-Jun-15 11:00N 39°15' W 076°32'2 3.4
2018-Jun-15 10:30N 39°13' W 076°32'0 0.1
2018-Jun-15 10:00N 39°13' W 076°32'2 4.2
2018-Jun-15 09:30N 39°15' W 076°32'0 1.0
2018-Jun-15 09:00N 39°15' W 076°32'2 3.5
2018-Jun-15 08:30N 39°13' W 076°32'1 1.3
2018-Jun-15 08:00N 39°13' W 076°32'0 0.0
2018-Jun-15 07:30N 39°13' W 076°32'0 0.0
2018-Jun-15 07:00N 39°13' W 076°32'0 0.0
2018-Jun-15 06:30N 39°13' W 076°32'0 0.0
2018-Jun-15 06:00N 39°13' W 076°32'1 2.9
2018-Jun-15 05:31N 39°14' W 076°32'0 1.0
2018-Jun-15 05:00N 39°14' W 076°32'1 2.7
2018-Jun-15 04:30N 39°13' W 076°32'3 6.2
2018-Jun-15 04:00N 39°16' W 076°34'1 1.5
2018-Jun-15 03:30N 39°16' W 076°35'0 0.0
2018-Jun-15 03:00N 39°16' W 076°35'0 0.0
2018-Jun-15 02:30N 39°16' W 076°35'0 0.0
2018-Jun-15 02:00N 39°16' W 076°35'0 0.0
2018-Jun-15 01:30N 39°16' W 076°35'0 0.0
2018-Jun-15 01:00N 39°16' W 076°35'0 0.0
2018-Jun-15 00:30N 39°16' W 076°35'0 0.0
2018-Jun-15 00:00N 39°16' W 076°35'  
Track history (hours):
 
Tides and Currents Weather Stations Pressure Air Temp Water Temp Dewpoint Dewpoint Depression Visibility Wind Speed Wind Dir Waves Ship Positions

Bridget Mcallister

Owner: McAllister Towing & Transportation Co. Inc., Staten Island, NY. More information available from US FCC via Universal Licensing System and Coast Guard Vessel Documentation Center.

Last reported at 2018-Jun-25 00:00 UTC. Time now 2018-Jun-25 00:23 UTC.
Position N 39°16' W 076°35'.

Length 23 m; draft 4.6 m.

Type: Tug. MMSI: 367576060.

Date/timePositionNaut miles runAvg speedWind from/ knotsBaromVisibWave heightAir tempDewpointWater temp
2018-Jun-25 00:00N 39°16' W 076°35'0 0.0
2018-Jun-24 23:30N 39°16' W 076°35'0 0.0
2018-Jun-24 23:00N 39°16' W 076°35'0 0.0
2018-Jun-24 22:30N 39°16' W 076°35'0 0.0
2018-Jun-24 22:00N 39°16' W 076°35'0 0.0
2018-Jun-24 21:30N 39°16' W 076°35'0 0.0
2018-Jun-24 21:00N 39°16' W 076°35'0 0.0
2018-Jun-24 20:30N 39°16' W 076°35'0 0.0
2018-Jun-24 20:00N 39°16' W 076°35'0 0.0
2018-Jun-24 19:30N 39°16' W 076°35'1 2.8
2018-Jun-24 19:00N 39°15' W 076°34'1 2.0
2018-Jun-24 18:30N 39°15' W 076°32'1 1.1
2018-Jun-24 18:00N 39°14' W 076°32'3 5.4
2018-Jun-24 17:30N 39°16' W 076°35'0 0.6
2018-Jun-24 17:00N 39°16' W 076°35'0 0.0
2018-Jun-24 16:30N 39°16' W 076°35'0 0.0
2018-Jun-24 16:00N 39°16' W 076°35'0 0.0
2018-Jun-24 15:30N 39°16' W 076°35'3 5.9
2018-Jun-24 15:00N 39°13' W 076°34'1 1.7
2018-Jun-24 14:30N 39°13' W 076°35'2 3.9
2018-Jun-24 14:00N 39°14' W 076°33'2 4.9
2018-Jun-24 13:30N 39°16' W 076°35'0 0.0
2018-Jun-24 13:00N 39°16' W 076°35'0 0.0
2018-Jun-24 12:30N 39°16' W 076°35'0 0.0
2018-Jun-24 12:00N 39°16' W 076°35'0 0.0
2018-Jun-24 11:30N 39°16' W 076°35'0 0.0
2018-Jun-24 11:00N 39°16' W 076°35'0 0.0
2018-Jun-24 10:30N 39°16' W 076°35'0 0.0
2018-Jun-24 10:00N 39°16' W 076°35'0 0.0
2018-Jun-24 09:30N 39°16' W 076°35'0 0.0
2018-Jun-24 09:00N 39°16' W 076°35'0 0.0
2018-Jun-24 08:30N 39°16' W 076°35'0 0.0
2018-Jun-24 08:00N 39°16' W 076°35'0 0.0
2018-Jun-24 07:30N 39°16' W 076°35'0 0.0
2018-Jun-24 07:00N 39°16' W 076°35'0 0.0
2018-Jun-24 06:30N 39°16' W 076°35'0 0.0
2018-Jun-24 06:00N 39°16' W 076°35'0 0.0
2018-Jun-24 05:30N 39°16' W 076°35'0 0.0
2018-Jun-24 05:00N 39°16' W 076°35'0 0.0
2018-Jun-24 04:30N 39°16' W 076°35'0 0.0
2018-Jun-24 04:00N 39°16' W 076°35'0 0.0
2018-Jun-24 03:30N 39°16' W 076°35'0 0.0
2018-Jun-24 03:00N 39°16' W 076°35'0 0.0
2018-Jun-24 02:30N 39°16' W 076°35'0 0.0
2018-Jun-24 02:00N 39°16' W 076°35'0 0.0
2018-Jun-24 01:30N 39°16' W 076°35'0 0.0
2018-Jun-24 01:00N 39°16' W 076°35'0 0.0
2018-Jun-24 00:30N 39°16' W 076°35'0 0.0
2018-Jun-24 00:00N 39°16' W 076°35'0 0.0
2018-Jun-23 23:30N 39°16' W 076°35'1 1.5
2018-Jun-23 23:00N 39°16' W 076°34'1 2.4
2018-Jun-23 22:30N 39°15' W 076°33'2 3.8
2018-Jun-23 22:00N 39°13' W 076°32'0 0.5
2018-Jun-23 21:30N 39°13' W 076°32'4 7.7
2018-Jun-23 21:00N 39°16' W 076°35'0 0.0
2018-Jun-23 20:30N 39°16' W 076°35'0 0.3
2018-Jun-23 20:00N 39°16' W 076°35'1 2.8
2018-Jun-23 19:30N 39°15' W 076°33'2 3.1
2018-Jun-23 19:00N 39°16' W 076°35'0 0.0
2018-Jun-23 18:30N 39°16' W 076°35'0 0.0
2018-Jun-23 18:00N 39°16' W 076°35'0 0.0
2018-Jun-23 17:30N 39°16' W 076°35'0 0.0
2018-Jun-23 17:00N 39°16' W 076°35'0 0.0
2018-Jun-23 16:30N 39°16' W 076°35'0 0.0
2018-Jun-23 16:00N 39°16' W 076°35'0 0.0
2018-Jun-23 15:30N 39°16' W 076°35'0 0.0
2018-Jun-23 15:00N 39°16' W 076°35'0 0.0
2018-Jun-23 14:30N 39°16' W 076°35'0 0.0
2018-Jun-23 14:00N 39°16' W 076°35'0 0.0
2018-Jun-23 13:30N 39°16' W 076°35'0 0.0
2018-Jun-23 13:00N 39°16' W 076°35'0 0.0
2018-Jun-23 12:29N 39°16' W 076°35'0 0.0
2018-Jun-23 12:00N 39°16' W 076°35'0 0.0
2018-Jun-23 11:30N 39°16' W 076°35'0 0.0
2018-Jun-23 11:00N 39°16' W 076°35'0 0.0
2018-Jun-23 10:30N 39°16' W 076°35'0 0.0
2018-Jun-23 10:00N 39°16' W 076°35'0 0.0
2018-Jun-23 09:30N 39°16' W 076°35'0 0.0
2018-Jun-23 09:00N 39°16' W 076°35'0 0.0
2018-Jun-23 08:30N 39°16' W 076°35'0 0.0
2018-Jun-23 08:00N 39°16' W 076°35'3 5.9
2018-Jun-23 07:29N 39°14' W 076°33'1 1.8
2018-Jun-23 06:58N 39°13' W 076°32'1 1.2
2018-Jun-23 06:30N 39°13' W 076°32'3 5.3
2018-Jun-23 06:00N 39°15' W 076°34'1 2.5
2018-Jun-23 05:30N 39°16' W 076°35'0 0.0
2018-Jun-23 05:00N 39°16' W 076°35'0 0.0
2018-Jun-23 04:30N 39°16' W 076°35'0 0.0
2018-Jun-23 04:00N 39°16' W 076°35'0 0.0
2018-Jun-23 03:30N 39°16' W 076°35'0 0.0
2018-Jun-23 03:00N 39°16' W 076°35'0 0.0
2018-Jun-23 02:30N 39°16' W 076°35'0 0.0
2018-Jun-23 02:00N 39°16' W 076°35'0 0.0
2018-Jun-23 01:30N 39°16' W 076°35'0 0.0
2018-Jun-23 01:00N 39°16' W 076°35'0 0.0
2018-Jun-23 00:30N 39°16' W 076°35'3 5.7
2018-Jun-23 00:00N 39°14' W 076°33'1 1.2
2018-Jun-22 23:30N 39°13' W 076°33'1 1.3
2018-Jun-22 22:24N 39°13' W 076°35'0 0.0
2018-Jun-22 22:00N 39°13' W 076°35'1 1.8
2018-Jun-22 21:22N 39°13' W 076°33'2 5.1
2018-Jun-22 21:00N 39°15' W 076°33'0 0.5
2018-Jun-22 20:30N 39°15' W 076°33'2 3.3
2018-Jun-22 20:00N 39°13' W 076°32'4 7.2
2018-Jun-22 19:30N 39°16' W 076°35'0 0.0
2018-Jun-22 19:00N 39°16' W 076°35'0 0.0
2018-Jun-22 18:30N 39°16' W 076°35'0 0.0
2018-Jun-22 18:00N 39°16' W 076°35'0 0.0
2018-Jun-22 17:30N 39°16' W 076°35'0 0.0
2018-Jun-22 17:00N 39°16' W 076°35'0 0.0
2018-Jun-22 16:30N 39°16' W 076°35'0 0.0
2018-Jun-22 16:00N 39°16' W 076°35'0 0.0
2018-Jun-22 15:30N 39°16' W 076°35'0 0.0
2018-Jun-22 15:00N 39°16' W 076°35'0 0.0
2018-Jun-22 14:30N 39°16' W 076°35'0 0.0
2018-Jun-22 14:00N 39°16' W 076°35'0 0.0
2018-Jun-22 13:30N 39°16' W 076°35'0 0.0
2018-Jun-22 13:00N 39°16' W 076°35'0 0.0
2018-Jun-22 12:30N 39°16' W 076°35'0 0.0
2018-Jun-22 12:00N 39°16' W 076°35'0 0.0
2018-Jun-22 11:30N 39°16' W 076°35'0 0.0
2018-Jun-22 11:00N 39°16' W 076°35'0 0.0
2018-Jun-22 10:30N 39°16' W 076°35'0 0.0
2018-Jun-22 10:00N 39°16' W 076°35'0 0.0
2018-Jun-22 09:30N 39°16' W 076°35'0 0.0
2018-Jun-22 09:00N 39°16' W 076°35'0 0.0
2018-Jun-22 08:30N 39°16' W 076°35'0 0.0
2018-Jun-22 08:00N 39°16' W 076°35'0 0.0
2018-Jun-22 07:30N 39°16' W 076°35'0 0.0
2018-Jun-22 07:00N 39°16' W 076°35'0 0.0
2018-Jun-22 06:30N 39°16' W 076°35'0 0.0
2018-Jun-22 06:00N 39°16' W 076°35'0 0.0
2018-Jun-22 05:30N 39°16' W 076°35'0 0.0
2018-Jun-22 05:00N 39°16' W 076°35'0 0.0
2018-Jun-22 04:30N 39°16' W 076°35'0 0.0
2018-Jun-22 04:00N 39°16' W 076°35'0 0.0
2018-Jun-22 03:30N 39°16' W 076°35'0 0.0
2018-Jun-22 03:00N 39°16' W 076°35'0 0.0
2018-Jun-22 02:30N 39°16' W 076°35'0 0.0
2018-Jun-22 02:00N 39°16' W 076°35'0 0.0
2018-Jun-22 01:30N 39°16' W 076°35'0 0.0
2018-Jun-22 01:00N 39°16' W 076°35'0 0.0
2018-Jun-22 00:30N 39°16' W 076°35'0 0.0
2018-Jun-22 00:00N 39°16' W 076°35'0 0.0
2018-Jun-21 23:30N 39°16' W 076°35'1 2.3
2018-Jun-21 23:00N 39°15' W 076°35'1 2.3
2018-Jun-21 22:30N 39°16' W 076°35'0 0.0
2018-Jun-21 22:00N 39°16' W 076°35'0 0.0
2018-Jun-21 21:30N 39°16' W 076°35'0 0.0
2018-Jun-21 21:00N 39°16' W 076°35'0 0.0
2018-Jun-21 20:30N 39°16' W 076°35'0 0.0
2018-Jun-21 20:00N 39°16' W 076°35'0 0.0
2018-Jun-21 19:30N 39°16' W 076°35'0 0.0
2018-Jun-21 19:00N 39°16' W 076°35'0 0.0
2018-Jun-21 18:30N 39°16' W 076°35'0 0.0
2018-Jun-21 18:00N 39°16' W 076°35'0 0.0
2018-Jun-21 17:30N 39°16' W 076°35'0 0.0
2018-Jun-21 17:00N 39°16' W 076°35'0 0.0
2018-Jun-21 16:30N 39°16' W 076°35'0 0.0
2018-Jun-21 16:00N 39°16' W 076°35'0 0.0
2018-Jun-21 15:30N 39°16' W 076°35'0 0.0
2018-Jun-21 15:00N 39°16' W 076°35'0 0.0
2018-Jun-21 14:30N 39°16' W 076°35'0 0.0
2018-Jun-21 14:00N 39°16' W 076°35'0 0.0
2018-Jun-21 13:30N 39°16' W 076°35'0 0.0
2018-Jun-21 13:00N 39°16' W 076°35'0 0.0
2018-Jun-21 12:30N 39°16' W 076°35'0 0.0
2018-Jun-21 12:00N 39°16' W 076°35'0 0.0
2018-Jun-21 11:30N 39°16' W 076°35'0 0.0
2018-Jun-21 11:00N 39°16' W 076°35'0 0.0
2018-Jun-21 10:30N 39°16' W 076°35'0 0.0
2018-Jun-21 10:00N 39°16' W 076°35'0 0.0
2018-Jun-21 09:30N 39°16' W 076°35'0 0.0
2018-Jun-21 09:00N 39°16' W 076°35'0 0.0
2018-Jun-21 08:30N 39°16' W 076°35'0 0.0
2018-Jun-21 08:00N 39°16' W 076°35'0 0.0
2018-Jun-21 07:30N 39°16' W 076°35'0 0.0
2018-Jun-21 07:00N 39°16' W 076°35'0 0.0
2018-Jun-21 06:30N 39°16' W 076°35'0 0.0
2018-Jun-21 06:00N 39°16' W 076°35'0 0.0
2018-Jun-21 05:30N 39°16' W 076°35'0 0.0
2018-Jun-21 05:00N 39°16' W 076°35'0 0.0
2018-Jun-21 04:30N 39°16' W 076°35'1 2.5
2018-Jun-21 04:00N 39°15' W 076°35'0 0.8
2018-Jun-21 03:30N 39°15' W 076°34'0 0.8
2018-Jun-21 03:00N 39°15' W 076°35'1 2.3
2018-Jun-21 02:30N 39°16' W 076°35'0 0.0
2018-Jun-21 02:00N 39°16' W 076°35'0 0.0
2018-Jun-21 01:30N 39°16' W 076°35'0 0.0
2018-Jun-21 01:00N 39°16' W 076°35'1 1.5
2018-Jun-21 00:30N 39°15' W 076°35'0 0.8
2018-Jun-21 00:00N 39°15' W 076°35'2 3.1
2018-Jun-20 23:30N 39°14' W 076°33'1 2.4
2018-Jun-20 23:00N 39°15' W 076°31'0 0.3
2018-Jun-20 22:27N 39°14' W 076°32'0 0.0
2018-Jun-20 22:00N 39°14' W 076°32'0 0.7
2018-Jun-20 21:30N 39°14' W 076°32'2 4.2
2018-Jun-20 21:00N 39°15' W 076°35'1 1.0
2018-Jun-20 20:30N 39°15' W 076°34'1 2.9
2018-Jun-20 20:00N 39°14' W 076°33'1 1.7
2018-Jun-20 19:30N 39°15' W 076°32'0 0.1
2018-Jun-20 19:00N 39°15' W 076°32'2 4.6
2018-Jun-20 18:30N 39°16' W 076°35'0 0.0
2018-Jun-20 18:00N 39°16' W 076°35'0 0.0
2018-Jun-20 17:30N 39°16' W 076°35'0 0.0
2018-Jun-20 17:00N 39°16' W 076°35'0 0.0
2018-Jun-20 16:30N 39°16' W 076°35'0 0.0
2018-Jun-20 16:00N 39°16' W 076°35'0 0.0
2018-Jun-20 15:30N 39°16' W 076°35'0 0.0
2018-Jun-20 15:00N 39°16' W 076°35'0 0.0
2018-Jun-20 14:30N 39°16' W 076°35'0 0.0
2018-Jun-20 14:00N 39°16' W 076°35'0 0.0
2018-Jun-20 13:30N 39°16' W 076°35'0 0.1
2018-Jun-20 13:00N 39°16' W 076°35'3 5.7
2018-Jun-20 12:30N 39°13' W 076°34'0 0.4
2018-Jun-20 11:57N 39°13' W 076°35'1 1.3
2018-Jun-20 11:29N 39°13' W 076°34'2 3.7
2018-Jun-20 11:00N 39°13' W 076°32'0 0.0
2018-Jun-20 10:30N 39°13' W 076°32'1 2.7
2018-Jun-20 10:00N 39°15' W 076°31'1 2.1
2018-Jun-20 09:30N 39°14' W 076°33'0 0.4
2018-Jun-20 09:00N 39°14' W 076°33'2 4.5
2018-Jun-20 08:31N 39°16' W 076°35'0 0.3
2018-Jun-20 08:00N 39°16' W 076°35'0 0.0
2018-Jun-20 07:30N 39°16' W 076°35'0 0.0
2018-Jun-20 07:00N 39°16' W 076°35'0 0.0
2018-Jun-20 06:30N 39°16' W 076°35'0 0.0
2018-Jun-20 06:00N 39°16' W 076°35'0 0.0
2018-Jun-20 05:30N 39°16' W 076°35'0 0.0
2018-Jun-20 05:00N 39°16' W 076°35'0 0.0
2018-Jun-20 04:30N 39°16' W 076°35'0 0.0
2018-Jun-20 04:00N 39°16' W 076°35'0 0.0
2018-Jun-20 03:30N 39°16' W 076°35'0 0.0
2018-Jun-20 03:00N 39°16' W 076°35'0 0.0
2018-Jun-20 02:30N 39°16' W 076°35'0 0.0
2018-Jun-20 02:00N 39°16' W 076°35'0 0.0
2018-Jun-20 01:30N 39°16' W 076°35'0 0.0
2018-Jun-20 01:00N 39°16' W 076°35'0 0.0
2018-Jun-20 00:30N 39°16' W 076°35'0 0.0
2018-Jun-20 00:00N 39°16' W 076°35'0 0.0
2018-Jun-19 23:30N 39°16' W 076°35'0 0.0
2018-Jun-19 23:00N 39°16' W 076°35'0 0.0
2018-Jun-19 22:30N 39°16' W 076°35'0 0.0
2018-Jun-19 22:00N 39°16' W 076°35'0 0.0
2018-Jun-19 21:30N 39°16' W 076°35'0 0.0
2018-Jun-19 21:00N 39°16' W 076°35'0 0.0
2018-Jun-19 20:30N 39°16' W 076°35'0 0.0
2018-Jun-19 20:00N 39°16' W 076°35'0 0.0
2018-Jun-19 19:30N 39°16' W 076°35'3 5.6
2018-Jun-19 19:00N 39°14' W 076°32'1 1.8
2018-Jun-19 18:30N 39°14' W 076°32'2 4.6
2018-Jun-19 18:00N 39°15' W 076°34'1 2.2
2018-Jun-19 17:30N 39°16' W 076°35'0 0.0
2018-Jun-19 17:00N 39°16' W 076°35'0 0.0
2018-Jun-19 16:30N 39°16' W 076°35'0 0.0
2018-Jun-19 16:00N 39°16' W 076°35'0 0.0
2018-Jun-19 15:30N 39°16' W 076°35'0 0.0
2018-Jun-19 15:00N 39°16' W 076°35'0 0.0
2018-Jun-19 14:30N 39°16' W 076°35'0 0.0
2018-Jun-19 14:00N 39°16' W 076°35'1 1.4
2018-Jun-19 13:30N 39°16' W 076°34'1 1.9
2018-Jun-19 13:00N 39°15' W 076°34'2 4.4
2018-Jun-19 12:30N 39°13' W 076°32'0 0.3
2018-Jun-19 12:00N 39°13' W 076°32'0 0.0
2018-Jun-19 11:30N 39°13' W 076°32'0 0.0
2018-Jun-19 11:00N 39°13' W 076°32'0 0.0
2018-Jun-19 10:30N 39°13' W 076°32'0 0.0
2018-Jun-19 10:00N 39°13' W 076°32'0 0.0
2018-Jun-19 09:26N 39°13' W 076°32'0 0.0
2018-Jun-19 09:00N 39°13' W 076°32'0 0.0
2018-Jun-19 08:30N 39°13' W 076°32'0 0.0
2018-Jun-19 08:00N 39°13' W 076°32'0 0.0
2018-Jun-19 07:30N 39°13' W 076°32'2 3.7
2018-Jun-19 07:00N 39°15' W 076°31'0 0.7
2018-Jun-19 06:30N 39°14' W 076°32'1 2.7
2018-Jun-19 06:00N 39°15' W 076°33'2 4.0
2018-Jun-19 05:30N 39°16' W 076°36'0 0.6
2018-Jun-19 05:00N 39°16' W 076°35'1 1.4
2018-Jun-19 04:30N 39°16' W 076°35'0 0.0
2018-Jun-19 04:00N 39°16' W 076°35'0 0.0
2018-Jun-19 03:30N 39°16' W 076°35'0 0.0
2018-Jun-19 03:00N 39°16' W 076°35'0 0.0
2018-Jun-19 02:30N 39°16' W 076°35'0 0.0
2018-Jun-19 02:00N 39°16' W 076°35'0 0.0
2018-Jun-19 01:30N 39°16' W 076°35'0 0.0
2018-Jun-19 01:00N 39°16' W 076°35'0 0.0
2018-Jun-19 00:30N 39°16' W 076°35'0 0.0
2018-Jun-19 00:00N 39°16' W 076°35'0 0.0
2018-Jun-18 23:30N 39°16' W 076°35'0 0.0
2018-Jun-18 23:00N 39°16' W 076°35'0 0.0
2018-Jun-18 22:30N 39°16' W 076°35'0 0.0
2018-Jun-18 22:00N 39°16' W 076°35'0 0.0
2018-Jun-18 21:30N 39°16' W 076°35'0 0.0
2018-Jun-18 21:00N 39°16' W 076°35'0 0.0
2018-Jun-18 20:30N 39°16' W 076°35'0 0.0
2018-Jun-18 20:00N 39°16' W 076°35'0 0.0
2018-Jun-18 19:30N 39°16' W 076°35'0 0.0
2018-Jun-18 19:00N 39°16' W 076°35'0 0.0
2018-Jun-18 18:30N 39°16' W 076°35'0 0.0
2018-Jun-18 18:00N 39°16' W 076°35'0 0.0
2018-Jun-18 17:30N 39°16' W 076°35'0 0.0
2018-Jun-18 17:00N 39°16' W 076°35'0 0.0
2018-Jun-18 15:26N 39°16' W 076°35'0 0.0
2018-Jun-18 15:00N 39°16' W 076°35'0 0.0
2018-Jun-18 14:30N 39°16' W 076°35'0 0.0
2018-Jun-18 14:00N 39°16' W 076°35'0 0.0
2018-Jun-18 13:30N 39°16' W 076°35'0 0.0
2018-Jun-18 13:00N 39°16' W 076°35'0 0.0
2018-Jun-18 12:30N 39°16' W 076°35'0 0.0
2018-Jun-18 12:00N 39°16' W 076°35'0 0.0
2018-Jun-18 11:30N 39°16' W 076°35'0 0.0
2018-Jun-18 11:00N 39°16' W 076°35'0 0.0
2018-Jun-18 10:30N 39°16' W 076°35'0 0.0
2018-Jun-18 10:00N 39°16' W 076°35'0 0.0
2018-Jun-18 09:30N 39°16' W 076°35'0 0.0
2018-Jun-18 09:00N 39°16' W 076°35'0 0.0
2018-Jun-18 08:30N 39°16' W 076°35'0 0.0
2018-Jun-18 08:00N 39°16' W 076°35'0 0.0
2018-Jun-18 07:30N 39°16' W 076°35'0 0.0
2018-Jun-18 07:00N 39°16' W 076°35'0 0.0
2018-Jun-18 06:30N 39°16' W 076°35'0 0.0
2018-Jun-18 06:00N 39°16' W 076°35'0 0.0
2018-Jun-18 05:30N 39°16' W 076°35'0 0.0
2018-Jun-18 05:00N 39°16' W 076°35'1 1.4
2018-Jun-18 04:30N 39°16' W 076°35'0 0.8
2018-Jun-18 04:01N 39°15' W 076°35'3 5.7
2018-Jun-18 03:30N 39°14' W 076°32'2 4.3
2018-Jun-18 03:00N 39°15' W 076°34'1 2.2
2018-Jun-18 02:30N 39°16' W 076°35'0 0.0
2018-Jun-18 02:00N 39°16' W 076°35'0 0.0
2018-Jun-18 01:30N 39°16' W 076°35'0 0.0
2018-Jun-18 01:00N 39°16' W 076°35'0 0.0
2018-Jun-18 00:30N 39°16' W 076°35'0 0.0
2018-Jun-18 00:00N 39°16' W 076°35'0 0.0
2018-Jun-17 23:30N 39°16' W 076°35'0 0.0
2018-Jun-17 23:00N 39°16' W 076°35'0 0.0
2018-Jun-17 22:30N 39°16' W 076°35'0 0.0
2018-Jun-17 22:00N 39°16' W 076°35'0 0.0
2018-Jun-17 21:30N 39°16' W 076°35'0 0.0
2018-Jun-17 21:00N 39°16' W 076°35'0 0.0
2018-Jun-17 20:30N 39°16' W 076°35'0 0.0
2018-Jun-17 20:00N 39°16' W 076°35'0 0.6
2018-Jun-17 19:30N 39°16' W 076°35'1 2.1
2018-Jun-17 19:00N 39°15' W 076°35'1 2.4
2018-Jun-17 18:30N 39°16' W 076°35'0 0.0
2018-Jun-17 18:00N 39°16' W 076°35'0 0.0
2018-Jun-17 17:30N 39°16' W 076°35'0 0.0
2018-Jun-17 17:00N 39°16' W 076°35'0 0.0
2018-Jun-17 16:30N 39°16' W 076°35'0 0.0
2018-Jun-17 16:00N 39°16' W 076°35'0 0.0
2018-Jun-17 15:30N 39°16' W 076°35'0 0.0
2018-Jun-17 15:00N 39°16' W 076°35'0 0.0
2018-Jun-17 14:30N 39°16' W 076°35'0 0.0
2018-Jun-17 14:00N 39°16' W 076°35'0 0.0
2018-Jun-17 13:30N 39°16' W 076°35'0 0.0
2018-Jun-17 13:00N 39°16' W 076°35'0 0.0
2018-Jun-17 12:30N 39°16' W 076°35'0 0.0
2018-Jun-17 12:00N 39°16' W 076°35'0 0.0
2018-Jun-17 11:30N 39°16' W 076°35'0 0.0
2018-Jun-17 11:00N 39°16' W 076°35'0 0.0
2018-Jun-17 10:30N 39°16' W 076°35'0 0.0
2018-Jun-17 10:00N 39°16' W 076°35'0 0.0
2018-Jun-17 09:30N 39°16' W 076°35'0 0.0
2018-Jun-17 09:00N 39°16' W 076°35'0 0.0
2018-Jun-17 08:30N 39°16' W 076°35'0 0.0
2018-Jun-17 08:00N 39°16' W 076°35'0 0.0
2018-Jun-17 07:30N 39°16' W 076°35'0 0.0
2018-Jun-17 07:00N 39°16' W 076°35'0 0.0
2018-Jun-17 06:30N 39°16' W 076°35'0 0.0
2018-Jun-17 06:00N 39°16' W 076°35'0 0.0
2018-Jun-17 05:30N 39°16' W 076°35'0 0.0
2018-Jun-17 05:00N 39°16' W 076°35'0 0.0
2018-Jun-17 04:30N 39°16' W 076°35'0 0.0
2018-Jun-17 04:00N 39°16' W 076°35'0 0.0
2018-Jun-17 03:30N 39°16' W 076°35'0 0.0
2018-Jun-17 03:00N 39°16' W 076°35'0 0.0
2018-Jun-17 02:30N 39°16' W 076°35'0 0.0
2018-Jun-17 02:00N 39°16' W 076°35'0 0.0
2018-Jun-17 01:30N 39°16' W 076°35'0 0.0
2018-Jun-17 01:00N 39°16' W 076°35'0 0.0
2018-Jun-17 00:30N 39°16' W 076°35'0 0.8
2018-Jun-17 00:00N 39°16' W 076°34'2 4.0
2018-Jun-16 23:31N 39°15' W 076°32'1 1.2
2018-Jun-16 23:00N 39°14' W 076°32'2 4.7
2018-Jun-16 22:31N 39°16' W 076°34'1 1.3
2018-Jun-16 22:00N 39°16' W 076°35'0 0.0
2018-Jun-16 21:30N 39°16' W 076°35'0 0.0
2018-Jun-16 21:00N 39°16' W 076°35'0 0.0
2018-Jun-16 20:30N 39°16' W 076°35'0 0.0
2018-Jun-16 20:00N 39°16' W 076°35'0 0.0
2018-Jun-16 19:30N 39°16' W 076°35'2 3.8
2018-Jun-16 19:00N 39°15' W 076°33'1 2.4
2018-Jun-16 18:30N 39°14' W 076°34'2 3.4
2018-Jun-16 18:00N 39°15' W 076°34'1 2.3
2018-Jun-16 17:30N 39°16' W 076°35'0 0.0
2018-Jun-16 17:00N 39°16' W 076°35'0 0.0
2018-Jun-16 16:30N 39°16' W 076°35'0 0.0
2018-Jun-16 16:00N 39°16' W 076°35'0 0.0
2018-Jun-16 15:30N 39°16' W 076°35'0 0.0
2018-Jun-16 15:00N 39°16' W 076°35'0 0.0
2018-Jun-16 14:30N 39°16' W 076°35'0 0.0
2018-Jun-16 14:00N 39°16' W 076°35'0 0.0
2018-Jun-16 13:30N 39°16' W 076°35'0 0.0
2018-Jun-16 13:00N 39°16' W 076°35'0 0.0
2018-Jun-16 12:30N 39°16' W 076°35'0 0.0
2018-Jun-16 12:00N 39°16' W 076°35'0 0.0
2018-Jun-16 11:30N 39°16' W 076°35'0 0.0
2018-Jun-16 11:00N 39°16' W 076°35'0 0.0
2018-Jun-16 10:30N 39°16' W 076°35'0 0.0
2018-Jun-16 10:01N 39°16' W 076°35'2 3.1
2018-Jun-16 09:30N 39°15' W 076°33'0 0.7
2018-Jun-16 09:00N 39°15' W 076°33'0 0.1
2018-Jun-16 08:30N 39°15' W 076°33'2 4.8
2018-Jun-16 08:00N 39°13' W 076°32'0 0.0
2018-Jun-16 07:30N 39°13' W 076°32'0 0.0
2018-Jun-16 07:00N 39°13' W 076°32'0 0.0
2018-Jun-16 06:30N 39°13' W 076°32'0 0.0
2018-Jun-16 06:00N 39°13' W 076°32'0 0.0
2018-Jun-16 05:30N 39°13' W 076°32'0 0.0
2018-Jun-16 05:00N 39°13' W 076°32'2 3.3
2018-Jun-16 04:30N 39°13' W 076°35'0 0.8
2018-Jun-16 04:00N 39°13' W 076°35'2 4.7
2018-Jun-16 03:30N 39°15' W 076°34'1 2.9
2018-Jun-16 03:00N 39°16' W 076°35'0 0.0
2018-Jun-16 02:30N 39°16' W 076°35'0 0.0
2018-Jun-16 02:00N 39°16' W 076°35'0 0.0
2018-Jun-16 01:30N 39°16' W 076°35'0 0.0
2018-Jun-16 01:00N 39°16' W 076°35'0 0.0
2018-Jun-16 00:30N 39°16' W 076°35'0 0.0
2018-Jun-16 00:00N 39°16' W 076°35'0 0.0
2018-Jun-15 23:30N 39°16' W 076°35'0 0.0
2018-Jun-15 23:00N 39°16' W 076°35'0 0.0
2018-Jun-15 22:30N 39°16' W 076°35'0 0.0
2018-Jun-15 22:00N 39°16' W 076°35'0 0.0
2018-Jun-15 21:30N 39°16' W 076°35'0 0.0
2018-Jun-15 21:00N 39°16' W 076°35'0 0.0
2018-Jun-15 20:30N 39°16' W 076°35'0 0.0
2018-Jun-15 20:00N 39°16' W 076°35'0 0.0
2018-Jun-15 19:30N 39°16' W 076°35'0 0.0
2018-Jun-15 19:00N 39°16' W 076°35'0 0.0
2018-Jun-15 18:30N 39°16' W 076°35'0 0.0
2018-Jun-15 18:00N 39°16' W 076°35'0 0.0
2018-Jun-15 17:30N 39°16' W 076°35'1 2.3
2018-Jun-15 17:00N 39°15' W 076°35'0 0.6
2018-Jun-15 16:29N 39°15' W 076°35'2 3.7
2018-Jun-15 16:00N 39°15' W 076°33'1 1.3
2018-Jun-15 15:30N 39°15' W 076°32'0 0.2
2018-Jun-15 15:00N 39°15' W 076°32'0 0.0
2018-Jun-15 14:30N 39°15' W 076°32'0 0.0
2018-Jun-15 14:00N 39°15' W 076°32'0 0.0
2018-Jun-15 13:30N 39°15' W 076°32'0 0.0
2018-Jun-15 13:00N 39°15' W 076°32'0 0.0
2018-Jun-15 12:30N 39°15' W 076°32'0 0.0
2018-Jun-15 12:00N 39°15' W 076°32'0 0.7
2018-Jun-15 11:30N 39°15' W 076°33'0 1.0
2018-Jun-15 11:00N 39°15' W 076°32'2 3.4
2018-Jun-15 10:30N 39°13' W 076°32'0 0.1
2018-Jun-15 10:00N 39°13' W 076°32'2 4.2
2018-Jun-15 09:30N 39°15' W 076°32'0 1.0
2018-Jun-15 09:00N 39°15' W 076°32'2 3.5
2018-Jun-15 08:30N 39°13' W 076°32'1 1.3
2018-Jun-15 08:00N 39°13' W 076°32'0 0.0
2018-Jun-15 07:30N 39°13' W 076°32'0 0.0
2018-Jun-15 07:00N 39°13' W 076°32'0 0.0
2018-Jun-15 06:30N 39°13' W 076°32'0 0.0
2018-Jun-15 06:00N 39°13' W 076°32'1 2.9
2018-Jun-15 05:31N 39°14' W 076°32'0 1.0
2018-Jun-15 05:00N 39°14' W 076°32'1 2.7
2018-Jun-15 04:30N 39°13' W 076°32'3 6.2
2018-Jun-15 04:00N 39°16' W 076°34'1 1.5
2018-Jun-15 03:30N 39°16' W 076°35'0 0.0
2018-Jun-15 03:00N 39°16' W 076°35'0 0.0
2018-Jun-15 02:30N 39°16' W 076°35'0 0.0
2018-Jun-15 02:00N 39°16' W 076°35'0 0.0
2018-Jun-15 01:30N 39°16' W 076°35'0 0.0
2018-Jun-15 01:00N 39°16' W 076°35'0 0.0
2018-Jun-15 00:30N 39°16' W 076°35'0 0.0
2018-Jun-15 00:00N 39°16' W 076°35'  

Dump ship's entire track history